Patricia Ann — WDE2845 — position and weather

sailwx.info

Track history (hours):
 
Tides and Currents Weather Stations Pressure Air Temp Water Temp Dewpoint Dewpoint Depression Visibility Wind Speed Wind Dir Waves Ship Positions

Patricia Ann

Owner: AmNav Maritime Services, Oakland, CA. More information available from US FCC via Universal Licensing System and Coast Guard Vessel Documentation Center.

Last reported at 2017-Jan-23 16:33 UTC. Time now 2017-Jan-23 16:49 UTC.
Position N 37°49' W 122°19'.

Length 24 m; draft 4.9 m.

Type: Tug. MMSI: 367330510.

Date/timePositionNaut miles runAvg speedWind from/ knotsBaromVisibWave heightAir tempDewpointWater temp
2017-Jan-23 16:33N 37°49' W 122°19'0 0.0
2017-Jan-23 15:34N 37°49' W 122°19'1 1.0
2017-Jan-23 14:33N 37°49' W 122°20'1 1.5
2017-Jan-23 13:34N 37°48' W 122°21'1 0.9
2017-Jan-23 12:34N 37°48' W 122°20'1 1.2
2017-Jan-23 11:34N 37°48' W 122°19'2 1.6
2017-Jan-23 10:32N 37°49' W 122°19'0 0.0
2017-Jan-23 09:33N 37°49' W 122°19'0 0.0
2017-Jan-23 08:34N 37°49' W 122°19'0 0.0
2017-Jan-23 07:34N 37°49' W 122°19'0 0.0
2017-Jan-23 06:33N 37°49' W 122°19'0 0.0
2017-Jan-23 05:33N 37°49' W 122°19'0 0.0
2017-Jan-23 04:34N 37°49' W 122°19'0 0.0
2017-Jan-23 03:34N 37°49' W 122°19'0 0.0
2017-Jan-23 02:34N 37°49' W 122°19'0 0.0
2017-Jan-23 01:33N 37°49' W 122°19'1 1.4
2017-Jan-23 00:33N 37°49' W 122°20'0 0.4
2017-Jan-22 23:33N 37°48' W 122°21'0 0.0
2017-Jan-22 22:33N 37°48' W 122°21'2 1.9
2017-Jan-22 21:34N 37°48' W 122°18'2 1.9
2017-Jan-22 20:33N 37°48' W 122°21'0 0.0
2017-Jan-22 19:33N 37°48' W 122°21'0 0.0
2017-Jan-22 18:34N 37°48' W 122°21'1 1.1
2017-Jan-22 17:34N 37°48' W 122°19'1 1.4
2017-Jan-22 16:33N 37°48' W 122°18'1 1.4
2017-Jan-22 15:33N 37°48' W 122°19'2 1.6
2017-Jan-22 14:32N 37°49' W 122°19'0 0.0
2017-Jan-22 13:33N 37°49' W 122°19'0 0.0
2017-Jan-22 12:33N 37°49' W 122°19'0 0.0
2017-Jan-22 11:33N 37°49' W 122°19'0 0.0
2017-Jan-22 10:33N 37°49' W 122°19'0 0.0
2017-Jan-22 09:33N 37°49' W 122°19'0 0.0
2017-Jan-22 08:33N 37°49' W 122°19'0 0.0
2017-Jan-22 07:32N 37°49' W 122°19'0 0.0
2017-Jan-22 06:33N 37°49' W 122°19'0 0.0
2017-Jan-22 05:33N 37°49' W 122°19'0 0.0
2017-Jan-22 04:33N 37°49' W 122°19'0 0.0
2017-Jan-22 03:33N 37°49' W 122°19'0 0.0
2017-Jan-22 02:33N 37°49' W 122°19'0 0.0
2017-Jan-22 01:33N 37°49' W 122°19'0 0.0
2017-Jan-22 00:33N 37°49' W 122°19'0 0.0
2017-Jan-21 23:33N 37°49' W 122°19'1 1.3
2017-Jan-21 22:33N 37°49' W 122°20'6 5.8
2017-Jan-21 21:33N 37°54' W 122°22'0 0.4
2017-Jan-21 20:30N 37°55' W 122°22'4 3.9
2017-Jan-21 19:33N 37°56' W 122°26'1210.7
2017-Jan-21 18:25N 38°04' W 122°14'0 0.5
2017-Jan-21 17:33N 38°03' W 122°13'4 4.0
2017-Jan-21 16:33N 38°03' W 122°18'9 9.2
2017-Jan-21 15:33N 37°56' W 122°26'9 8.7
2017-Jan-21 14:34N 37°49' W 122°19'0 0.5
2017-Jan-21 13:33N 37°49' W 122°19'0 0.0
2017-Jan-21 12:33N 37°49' W 122°19'0 0.0
2017-Jan-21 11:33N 37°49' W 122°19'0 0.0
2017-Jan-21 10:33N 37°49' W 122°19'0 0.0
2017-Jan-21 09:33N 37°49' W 122°19'0 0.0
2017-Jan-21 08:33N 37°49' W 122°19'0 0.0
2017-Jan-21 07:33N 37°49' W 122°19'0 0.0
2017-Jan-21 06:33N 37°49' W 122°19'0 0.0
2017-Jan-21 05:33N 37°49' W 122°19'0 0.0
2017-Jan-21 04:33N 37°49' W 122°19'0 0.0
2017-Jan-21 03:33N 37°49' W 122°19'0 0.0
2017-Jan-21 02:33N 37°49' W 122°19'0 0.0
2017-Jan-21 01:33N 37°49' W 122°19'0 0.0
2017-Jan-21 00:33N 37°49' W 122°19'0 0.0
2017-Jan-20 23:33N 37°49' W 122°19'0 0.2
2017-Jan-20 22:33N 37°49' W 122°19'1 1.4
2017-Jan-20 21:34N 37°48' W 122°19'0 0.1
2017-Jan-20 20:33N 37°48' W 122°19'1 1.4
2017-Jan-20 19:33N 37°48' W 122°21'0 0.2
2017-Jan-20 18:34N 37°48' W 122°21'0 0.2
2017-Jan-20 17:33N 37°48' W 122°20'2 2.1
2017-Jan-20 16:33N 37°50' W 122°22'6 5.7
2017-Jan-20 15:32N 37°56' W 122°25'1 0.5
2017-Jan-20 14:33N 37°55' W 122°25'2 2.1
2017-Jan-20 13:33N 37°53' W 122°25'6 5.6
2017-Jan-20 12:34N 37°49' W 122°21'2 1.8
2017-Jan-20 11:33N 37°49' W 122°19'0 0.0
2017-Jan-20 10:33N 37°49' W 122°19'0 0.0
2017-Jan-20 09:33N 37°49' W 122°19'0 0.0
2017-Jan-20 08:33N 37°49' W 122°19'0 0.0
2017-Jan-20 07:33N 37°49' W 122°19'0 0.0
2017-Jan-20 06:33N 37°49' W 122°19'0 0.0
2017-Jan-20 05:33N 37°49' W 122°19'0 0.0
2017-Jan-20 04:33N 37°49' W 122°19'0 0.0
2017-Jan-20 03:33N 37°49' W 122°19'0 0.0
2017-Jan-20 02:33N 37°49' W 122°19'0 0.0
2017-Jan-20 01:33N 37°49' W 122°19'0 0.0
2017-Jan-20 00:33N 37°49' W 122°19'0 0.0
2017-Jan-19 23:33N 37°49' W 122°19'0 0.0
2017-Jan-19 22:33N 37°49' W 122°19'0 0.0
2017-Jan-19 21:33N 37°49' W 122°19'0 0.0
2017-Jan-19 20:33N 37°49' W 122°19'0 0.0
2017-Jan-19 19:33N 37°49' W 122°19'0 0.0
2017-Jan-19 18:33N 37°49' W 122°19'0 0.0
2017-Jan-19 17:32N 37°49' W 122°19'0 0.0
2017-Jan-19 16:33N 37°49' W 122°19'0 0.0
2017-Jan-19 15:34N 37°49' W 122°19'2 2.3
2017-Jan-19 14:33N 37°48' W 122°21'2 2.1
2017-Jan-19 13:34N 37°48' W 122°19'0 0.2
2017-Jan-19 12:34N 37°48' W 122°19'0 0.0
2017-Jan-19 11:33N 37°48' W 122°19'0 0.0
2017-Jan-19 10:33N 37°48' W 122°19'0 0.0
2017-Jan-19 09:33N 37°48' W 122°19'0 0.4
2017-Jan-19 08:34N 37°48' W 122°18'1 1.4
2017-Jan-19 07:33N 37°48' W 122°20'0 0.5
2017-Jan-19 06:33N 37°48' W 122°21'0 0.0
2017-Jan-19 05:33N 37°48' W 122°21'2 1.5
2017-Jan-19 04:33N 37°49' W 122°23'9 8.5
2017-Jan-19 03:31N 37°57' W 122°26'12 9.6
2017-Jan-19 02:18N 38°04' W 122°14'2 0.7
2017-Jan-18 23:25N 38°03' W 122°11'5 2.8
2017-Jan-18 21:33N 38°03' W 122°18'10 9.1
2017-Jan-18 20:28N 37°55' W 122°25'8 8.6
2017-Jan-18 19:33N 37°49' W 122°19'0 0.4
2017-Jan-18 18:33N 37°49' W 122°19'0 0.0
2017-Jan-18 17:33N 37°49' W 122°19'0 0.0
2017-Jan-18 16:33N 37°49' W 122°19'0 0.0
2017-Jan-18 15:33N 37°49' W 122°19'0 0.0
2017-Jan-18 14:33N 37°49' W 122°19'0 0.0
2017-Jan-18 13:33N 37°49' W 122°19'0 0.0
2017-Jan-18 12:33N 37°49' W 122°19'0 0.0
2017-Jan-18 11:33N 37°49' W 122°19'0 0.0
2017-Jan-18 10:33N 37°49' W 122°19'0 0.0
2017-Jan-18 09:33N 37°49' W 122°19'0 0.0
2017-Jan-18 08:33N 37°49' W 122°19'0 0.0
2017-Jan-18 07:33N 37°49' W 122°19'0 0.0
2017-Jan-18 06:33N 37°49' W 122°19'0 0.0
2017-Jan-18 05:33N 37°49' W 122°19'0 0.0
2017-Jan-18 04:33N 37°49' W 122°19'0 0.0
2017-Jan-18 03:33N 37°49' W 122°19'2 1.6
2017-Jan-18 02:33N 37°48' W 122°19'0 0.1
2017-Jan-18 01:33N 37°48' W 122°19'2 2.5
2017-Jan-18 00:34N 37°48' W 122°22'2 2.3
2017-Jan-17 23:33N 37°48' W 122°19'1 0.7
2017-Jan-17 22:33N 37°48' W 122°20'2 1.8
2017-Jan-17 21:33N 37°49' W 122°19'0 0.0
2017-Jan-17 20:33N 37°49' W 122°19'0 0.0
2017-Jan-17 19:33N 37°49' W 122°19'0 0.0
2017-Jan-17 18:33N 37°49' W 122°19'0 0.0
2017-Jan-17 17:33N 37°49' W 122°19'0 0.0
2017-Jan-17 16:33N 37°49' W 122°19'2 1.9
2017-Jan-17 15:33N 37°48' W 122°18'1 0.9
2017-Jan-17 14:33N 37°48' W 122°19'2 1.6
2017-Jan-17 13:33N 37°49' W 122°19'0 0.0
2017-Jan-17 12:33N 37°49' W 122°19'0 0.0
2017-Jan-17 11:33N 37°49' W 122°19'0 0.0
2017-Jan-17 10:33N 37°49' W 122°19'0 0.0
2017-Jan-17 09:33N 37°49' W 122°19'0 0.0
2017-Jan-17 08:33N 37°49' W 122°19'0 0.0
2017-Jan-17 07:33N 37°49' W 122°19'0 0.0
2017-Jan-17 06:33N 37°49' W 122°19'0 0.0
2017-Jan-17 05:33N 37°49' W 122°19'0 0.0
2017-Jan-17 04:33N 37°49' W 122°19'2 2.2
2017-Jan-17 03:33N 37°48' W 122°17'1 1.2
2017-Jan-17 02:33N 37°48' W 122°19'0 0.2
2017-Jan-17 01:34N 37°48' W 122°19'1 1.0
2017-Jan-17 00:33N 37°49' W 122°20'1 0.9
2017-Jan-16 23:33N 37°49' W 122°19'0 0.0
2017-Jan-16 22:32N 37°49' W 122°19'0 0.0
2017-Jan-16 21:33N 37°49' W 122°19'0 0.0
2017-Jan-16 20:33N 37°49' W 122°19'0 0.0
2017-Jan-16 19:33N 37°49' W 122°19'0 0.0
2017-Jan-16 18:33N 37°49' W 122°19'0 0.0
2017-Jan-16 17:33N 37°49' W 122°19'0 0.0
2017-Jan-16 16:33N 37°49' W 122°19'0 0.0
2017-Jan-16 15:33N 37°49' W 122°19'0 0.0
2017-Jan-16 14:33N 37°49' W 122°19'0 0.0
2017-Jan-16 13:33N 37°49' W 122°19'2 1.7
2017-Jan-16 12:33N 37°48' W 122°19'2 1.8
2017-Jan-16 11:34N 37°48' W 122°21'2 2.2
2017-Jan-16 10:33N 37°49' W 122°19'0 0.0
2017-Jan-16 09:33N 37°49' W 122°19'0 0.0
2017-Jan-16 08:33N 37°49' W 122°19'0 0.0
2017-Jan-16 07:33N 37°49' W 122°19'0 0.0
2017-Jan-16 06:33N 37°49' W 122°19'0 0.0
2017-Jan-16 05:33N 37°49' W 122°19'0 0.0
2017-Jan-16 04:33N 37°49' W 122°19'0 0.0
2017-Jan-16 03:33N 37°49' W 122°19'0 0.0
2017-Jan-16 02:33N 37°49' W 122°19'0 0.0
2017-Jan-16 01:33N 37°49' W 122°19'2 1.6
2017-Jan-16 00:33N 37°49' W 122°20'6 6.1
2017-Jan-15 23:33N 37°54' W 122°23'1 1.0
2017-Jan-15 22:33N 37°55' W 122°22'2 1.7
2017-Jan-15 21:33N 37°54' W 122°24'2 1.6
2017-Jan-15 20:33N 37°53' W 122°25'6 5.9
2017-Jan-15 19:33N 37°49' W 122°20'3 2.9
2017-Jan-15 18:34N 37°47' W 122°22'4 3.9
2017-Jan-15 17:33N 37°49' W 122°19'0 0.0
2017-Jan-15 16:33N 37°49' W 122°19'0 0.0
2017-Jan-15 15:33N 37°49' W 122°19'2 1.7
2017-Jan-15 14:33N 37°48' W 122°21'0 0.0
2017-Jan-15 13:33N 37°48' W 122°21'1 0.5
2017-Jan-15 12:33N 37°49' W 122°20'0 0.0
2017-Jan-15 11:33N 37°49' W 122°20'1 1.2
2017-Jan-15 10:33N 37°49' W 122°19'0 0.0
2017-Jan-15 09:33N 37°49' W 122°19'0 0.0
2017-Jan-15 08:33N 37°49' W 122°19'0 0.0
2017-Jan-15 07:33N 37°49' W 122°19'0 0.0
2017-Jan-15 06:33N 37°49' W 122°19'0 0.0
2017-Jan-15 05:33N 37°49' W 122°19'0 0.0
2017-Jan-15 04:33N 37°49' W 122°19'0 0.0
2017-Jan-15 03:33N 37°49' W 122°19'0 0.0
2017-Jan-15 02:33N 37°49' W 122°19'0 0.0
2017-Jan-15 01:33N 37°49' W 122°19'0 0.0
2017-Jan-15 00:33N 37°49' W 122°19'4 3.9
2017-Jan-14 23:34N 37°46' W 122°20'7 6.9
2017-Jan-14 22:33N 37°52' W 122°25'9 9.2
2017-Jan-14 21:33N 38°01' W 122°24'7 6.9
2017-Jan-14 20:33N 38°03' W 122°16'0 0.0
2017-Jan-14 19:23N 38°03' W 122°16'0 0.0
2017-Jan-14 18:34N 38°03' W 122°16'0 0.1
2017-Jan-14 17:33N 38°03' W 122°16'1 1.2
2017-Jan-14 16:33N 38°03' W 122°17'10 7.6
2017-Jan-14 15:16N 37°56' W 122°26'6 8.0
2017-Jan-14 14:33N 37°51' W 122°23'4 4.0
2017-Jan-14 13:33N 37°49' W 122°19'0 0.0
2017-Jan-14 12:33N 37°49' W 122°19'0 0.0
2017-Jan-14 11:33N 37°49' W 122°19'0 0.0
2017-Jan-14 10:33N 37°49' W 122°19'0 0.0
2017-Jan-14 09:33N 37°49' W 122°19'1 0.8
2017-Jan-14 08:34N 37°49' W 122°20'1 0.7
2017-Jan-14 07:34N 37°49' W 122°20'2 1.5
2017-Jan-14 06:33N 37°49' W 122°19'0 0.0
2017-Jan-14 05:33N 37°49' W 122°19'0 0.0
2017-Jan-14 04:33N 37°49' W 122°19'0 0.0
2017-Jan-14 03:33N 37°49' W 122°19'0 0.0
2017-Jan-13 23:33N 37°49' W 122°19'0 0.0
2017-Jan-13 22:33N 37°49' W 122°19'0 0.0
2017-Jan-13 21:33N 37°49' W 122°19'0 0.0
2017-Jan-13 20:33N 37°49' W 122°19'0 0.0
2017-Jan-13 19:33N 37°49' W 122°19'1 1.1
2017-Jan-13 18:33N 37°49' W 122°20'1 1.1
2017-Jan-13 17:33N 37°48' W 122°19'1 1.0
2017-Jan-13 16:33N 37°48' W 122°18'  
Track history (hours):
 
Tides and Currents Weather Stations Pressure Air Temp Water Temp Dewpoint Dewpoint Depression Visibility Wind Speed Wind Dir Waves Ship Positions

Patricia Ann

Owner: AmNav Maritime Services, Oakland, CA. More information available from US FCC via Universal Licensing System and Coast Guard Vessel Documentation Center.

Last reported at 2017-Jan-23 16:33 UTC. Time now 2017-Jan-23 16:49 UTC.
Position N 37°49' W 122°19'.

Length 24 m; draft 4.9 m.

Type: Tug. MMSI: 367330510.

Date/timePositionNaut miles runAvg speedWind from/ knotsBaromVisibWave heightAir tempDewpointWater temp
2017-Jan-23 16:33N 37°49' W 122°19'0 0.0
2017-Jan-23 15:34N 37°49' W 122°19'1 1.0
2017-Jan-23 14:33N 37°49' W 122°20'1 1.5
2017-Jan-23 13:34N 37°48' W 122°21'1 0.9
2017-Jan-23 12:34N 37°48' W 122°20'1 1.2
2017-Jan-23 11:34N 37°48' W 122°19'2 1.6
2017-Jan-23 10:32N 37°49' W 122°19'0 0.0
2017-Jan-23 09:33N 37°49' W 122°19'0 0.0
2017-Jan-23 08:34N 37°49' W 122°19'0 0.0
2017-Jan-23 07:34N 37°49' W 122°19'0 0.0
2017-Jan-23 06:33N 37°49' W 122°19'0 0.0
2017-Jan-23 05:33N 37°49' W 122°19'0 0.0
2017-Jan-23 04:34N 37°49' W 122°19'0 0.0
2017-Jan-23 03:34N 37°49' W 122°19'0 0.0
2017-Jan-23 02:34N 37°49' W 122°19'0 0.0
2017-Jan-23 01:33N 37°49' W 122°19'1 1.4
2017-Jan-23 00:33N 37°49' W 122°20'0 0.4
2017-Jan-22 23:33N 37°48' W 122°21'0 0.0
2017-Jan-22 22:33N 37°48' W 122°21'2 1.9
2017-Jan-22 21:34N 37°48' W 122°18'2 1.9
2017-Jan-22 20:33N 37°48' W 122°21'0 0.0
2017-Jan-22 19:33N 37°48' W 122°21'0 0.0
2017-Jan-22 18:34N 37°48' W 122°21'1 1.1
2017-Jan-22 17:34N 37°48' W 122°19'1 1.4
2017-Jan-22 16:33N 37°48' W 122°18'1 1.4
2017-Jan-22 15:33N 37°48' W 122°19'2 1.6
2017-Jan-22 14:32N 37°49' W 122°19'0 0.0
2017-Jan-22 13:33N 37°49' W 122°19'0 0.0
2017-Jan-22 12:33N 37°49' W 122°19'0 0.0
2017-Jan-22 11:33N 37°49' W 122°19'0 0.0
2017-Jan-22 10:33N 37°49' W 122°19'0 0.0
2017-Jan-22 09:33N 37°49' W 122°19'0 0.0
2017-Jan-22 08:33N 37°49' W 122°19'0 0.0
2017-Jan-22 07:32N 37°49' W 122°19'0 0.0
2017-Jan-22 06:33N 37°49' W 122°19'0 0.0
2017-Jan-22 05:33N 37°49' W 122°19'0 0.0
2017-Jan-22 04:33N 37°49' W 122°19'0 0.0
2017-Jan-22 03:33N 37°49' W 122°19'0 0.0
2017-Jan-22 02:33N 37°49' W 122°19'0 0.0
2017-Jan-22 01:33N 37°49' W 122°19'0 0.0
2017-Jan-22 00:33N 37°49' W 122°19'0 0.0
2017-Jan-21 23:33N 37°49' W 122°19'1 1.3
2017-Jan-21 22:33N 37°49' W 122°20'6 5.8
2017-Jan-21 21:33N 37°54' W 122°22'0 0.4
2017-Jan-21 20:30N 37°55' W 122°22'4 3.9
2017-Jan-21 19:33N 37°56' W 122°26'1210.7
2017-Jan-21 18:25N 38°04' W 122°14'0 0.5
2017-Jan-21 17:33N 38°03' W 122°13'4 4.0
2017-Jan-21 16:33N 38°03' W 122°18'9 9.2
2017-Jan-21 15:33N 37°56' W 122°26'9 8.7
2017-Jan-21 14:34N 37°49' W 122°19'0 0.5
2017-Jan-21 13:33N 37°49' W 122°19'0 0.0
2017-Jan-21 12:33N 37°49' W 122°19'0 0.0
2017-Jan-21 11:33N 37°49' W 122°19'0 0.0
2017-Jan-21 10:33N 37°49' W 122°19'0 0.0
2017-Jan-21 09:33N 37°49' W 122°19'0 0.0
2017-Jan-21 08:33N 37°49' W 122°19'0 0.0
2017-Jan-21 07:33N 37°49' W 122°19'0 0.0
2017-Jan-21 06:33N 37°49' W 122°19'0 0.0
2017-Jan-21 05:33N 37°49' W 122°19'0 0.0
2017-Jan-21 04:33N 37°49' W 122°19'0 0.0
2017-Jan-21 03:33N 37°49' W 122°19'0 0.0
2017-Jan-21 02:33N 37°49' W 122°19'0 0.0
2017-Jan-21 01:33N 37°49' W 122°19'0 0.0
2017-Jan-21 00:33N 37°49' W 122°19'0 0.0
2017-Jan-20 23:33N 37°49' W 122°19'0 0.2
2017-Jan-20 22:33N 37°49' W 122°19'1 1.4
2017-Jan-20 21:34N 37°48' W 122°19'0 0.1
2017-Jan-20 20:33N 37°48' W 122°19'1 1.4
2017-Jan-20 19:33N 37°48' W 122°21'0 0.2
2017-Jan-20 18:34N 37°48' W 122°21'0 0.2
2017-Jan-20 17:33N 37°48' W 122°20'2 2.1
2017-Jan-20 16:33N 37°50' W 122°22'6 5.7
2017-Jan-20 15:32N 37°56' W 122°25'1 0.5
2017-Jan-20 14:33N 37°55' W 122°25'2 2.1
2017-Jan-20 13:33N 37°53' W 122°25'6 5.6
2017-Jan-20 12:34N 37°49' W 122°21'2 1.8
2017-Jan-20 11:33N 37°49' W 122°19'0 0.0
2017-Jan-20 10:33N 37°49' W 122°19'0 0.0
2017-Jan-20 09:33N 37°49' W 122°19'0 0.0
2017-Jan-20 08:33N 37°49' W 122°19'0 0.0
2017-Jan-20 07:33N 37°49' W 122°19'0 0.0
2017-Jan-20 06:33N 37°49' W 122°19'0 0.0
2017-Jan-20 05:33N 37°49' W 122°19'0 0.0
2017-Jan-20 04:33N 37°49' W 122°19'0 0.0
2017-Jan-20 03:33N 37°49' W 122°19'0 0.0
2017-Jan-20 02:33N 37°49' W 122°19'0 0.0
2017-Jan-20 01:33N 37°49' W 122°19'0 0.0
2017-Jan-20 00:33N 37°49' W 122°19'0 0.0
2017-Jan-19 23:33N 37°49' W 122°19'0 0.0
2017-Jan-19 22:33N 37°49' W 122°19'0 0.0
2017-Jan-19 21:33N 37°49' W 122°19'0 0.0
2017-Jan-19 20:33N 37°49' W 122°19'0 0.0
2017-Jan-19 19:33N 37°49' W 122°19'0 0.0
2017-Jan-19 18:33N 37°49' W 122°19'0 0.0
2017-Jan-19 17:32N 37°49' W 122°19'0 0.0
2017-Jan-19 16:33N 37°49' W 122°19'0 0.0
2017-Jan-19 15:34N 37°49' W 122°19'2 2.3
2017-Jan-19 14:33N 37°48' W 122°21'2 2.1
2017-Jan-19 13:34N 37°48' W 122°19'0 0.2
2017-Jan-19 12:34N 37°48' W 122°19'0 0.0
2017-Jan-19 11:33N 37°48' W 122°19'0 0.0
2017-Jan-19 10:33N 37°48' W 122°19'0 0.0
2017-Jan-19 09:33N 37°48' W 122°19'0 0.4
2017-Jan-19 08:34N 37°48' W 122°18'1 1.4
2017-Jan-19 07:33N 37°48' W 122°20'0 0.5
2017-Jan-19 06:33N 37°48' W 122°21'0 0.0
2017-Jan-19 05:33N 37°48' W 122°21'2 1.5
2017-Jan-19 04:33N 37°49' W 122°23'9 8.5
2017-Jan-19 03:31N 37°57' W 122°26'12 9.6
2017-Jan-19 02:18N 38°04' W 122°14'2 0.7
2017-Jan-18 23:25N 38°03' W 122°11'5 2.8
2017-Jan-18 21:33N 38°03' W 122°18'10 9.1
2017-Jan-18 20:28N 37°55' W 122°25'8 8.6
2017-Jan-18 19:33N 37°49' W 122°19'0 0.4
2017-Jan-18 18:33N 37°49' W 122°19'0 0.0
2017-Jan-18 17:33N 37°49' W 122°19'0 0.0
2017-Jan-18 16:33N 37°49' W 122°19'0 0.0
2017-Jan-18 15:33N 37°49' W 122°19'0 0.0
2017-Jan-18 14:33N 37°49' W 122°19'0 0.0
2017-Jan-18 13:33N 37°49' W 122°19'0 0.0
2017-Jan-18 12:33N 37°49' W 122°19'0 0.0
2017-Jan-18 11:33N 37°49' W 122°19'0 0.0
2017-Jan-18 10:33N 37°49' W 122°19'0 0.0
2017-Jan-18 09:33N 37°49' W 122°19'0 0.0
2017-Jan-18 08:33N 37°49' W 122°19'0 0.0
2017-Jan-18 07:33N 37°49' W 122°19'0 0.0
2017-Jan-18 06:33N 37°49' W 122°19'0 0.0
2017-Jan-18 05:33N 37°49' W 122°19'0 0.0
2017-Jan-18 04:33N 37°49' W 122°19'0 0.0
2017-Jan-18 03:33N 37°49' W 122°19'2 1.6
2017-Jan-18 02:33N 37°48' W 122°19'0 0.1
2017-Jan-18 01:33N 37°48' W 122°19'2 2.5
2017-Jan-18 00:34N 37°48' W 122°22'2 2.3
2017-Jan-17 23:33N 37°48' W 122°19'1 0.7
2017-Jan-17 22:33N 37°48' W 122°20'2 1.8
2017-Jan-17 21:33N 37°49' W 122°19'0 0.0
2017-Jan-17 20:33N 37°49' W 122°19'0 0.0
2017-Jan-17 19:33N 37°49' W 122°19'0 0.0
2017-Jan-17 18:33N 37°49' W 122°19'0 0.0
2017-Jan-17 17:33N 37°49' W 122°19'0 0.0
2017-Jan-17 16:33N 37°49' W 122°19'2 1.9
2017-Jan-17 15:33N 37°48' W 122°18'1 0.9
2017-Jan-17 14:33N 37°48' W 122°19'2 1.6
2017-Jan-17 13:33N 37°49' W 122°19'0 0.0
2017-Jan-17 12:33N 37°49' W 122°19'0 0.0
2017-Jan-17 11:33N 37°49' W 122°19'0 0.0
2017-Jan-17 10:33N 37°49' W 122°19'0 0.0
2017-Jan-17 09:33N 37°49' W 122°19'0 0.0
2017-Jan-17 08:33N 37°49' W 122°19'0 0.0
2017-Jan-17 07:33N 37°49' W 122°19'0 0.0
2017-Jan-17 06:33N 37°49' W 122°19'0 0.0
2017-Jan-17 05:33N 37°49' W 122°19'0 0.0
2017-Jan-17 04:33N 37°49' W 122°19'2 2.2
2017-Jan-17 03:33N 37°48' W 122°17'1 1.2
2017-Jan-17 02:33N 37°48' W 122°19'0 0.2
2017-Jan-17 01:34N 37°48' W 122°19'1 1.0
2017-Jan-17 00:33N 37°49' W 122°20'1 0.9
2017-Jan-16 23:33N 37°49' W 122°19'0 0.0
2017-Jan-16 22:32N 37°49' W 122°19'0 0.0
2017-Jan-16 21:33N 37°49' W 122°19'0 0.0
2017-Jan-16 20:33N 37°49' W 122°19'0 0.0
2017-Jan-16 19:33N 37°49' W 122°19'0 0.0
2017-Jan-16 18:33N 37°49' W 122°19'0 0.0
2017-Jan-16 17:33N 37°49' W 122°19'0 0.0
2017-Jan-16 16:33N 37°49' W 122°19'0 0.0
2017-Jan-16 15:33N 37°49' W 122°19'0 0.0
2017-Jan-16 14:33N 37°49' W 122°19'0 0.0
2017-Jan-16 13:33N 37°49' W 122°19'2 1.7
2017-Jan-16 12:33N 37°48' W 122°19'2 1.8
2017-Jan-16 11:34N 37°48' W 122°21'2 2.2
2017-Jan-16 10:33N 37°49' W 122°19'0 0.0
2017-Jan-16 09:33N 37°49' W 122°19'0 0.0
2017-Jan-16 08:33N 37°49' W 122°19'0 0.0
2017-Jan-16 07:33N 37°49' W 122°19'0 0.0
2017-Jan-16 06:33N 37°49' W 122°19'0 0.0
2017-Jan-16 05:33N 37°49' W 122°19'0 0.0
2017-Jan-16 04:33N 37°49' W 122°19'0 0.0
2017-Jan-16 03:33N 37°49' W 122°19'0 0.0
2017-Jan-16 02:33N 37°49' W 122°19'0 0.0
2017-Jan-16 01:33N 37°49' W 122°19'2 1.6
2017-Jan-16 00:33N 37°49' W 122°20'6 6.1
2017-Jan-15 23:33N 37°54' W 122°23'1 1.0
2017-Jan-15 22:33N 37°55' W 122°22'2 1.7
2017-Jan-15 21:33N 37°54' W 122°24'2 1.6
2017-Jan-15 20:33N 37°53' W 122°25'6 5.9
2017-Jan-15 19:33N 37°49' W 122°20'3 2.9
2017-Jan-15 18:34N 37°47' W 122°22'4 3.9
2017-Jan-15 17:33N 37°49' W 122°19'0 0.0
2017-Jan-15 16:33N 37°49' W 122°19'0 0.0
2017-Jan-15 15:33N 37°49' W 122°19'2 1.7
2017-Jan-15 14:33N 37°48' W 122°21'0 0.0
2017-Jan-15 13:33N 37°48' W 122°21'1 0.5
2017-Jan-15 12:33N 37°49' W 122°20'0 0.0
2017-Jan-15 11:33N 37°49' W 122°20'1 1.2
2017-Jan-15 10:33N 37°49' W 122°19'0 0.0
2017-Jan-15 09:33N 37°49' W 122°19'0 0.0
2017-Jan-15 08:33N 37°49' W 122°19'0 0.0
2017-Jan-15 07:33N 37°49' W 122°19'0 0.0
2017-Jan-15 06:33N 37°49' W 122°19'0 0.0
2017-Jan-15 05:33N 37°49' W 122°19'0 0.0
2017-Jan-15 04:33N 37°49' W 122°19'0 0.0
2017-Jan-15 03:33N 37°49' W 122°19'0 0.0
2017-Jan-15 02:33N 37°49' W 122°19'0 0.0
2017-Jan-15 01:33N 37°49' W 122°19'0 0.0
2017-Jan-15 00:33N 37°49' W 122°19'4 3.9
2017-Jan-14 23:34N 37°46' W 122°20'7 6.9
2017-Jan-14 22:33N 37°52' W 122°25'9 9.2
2017-Jan-14 21:33N 38°01' W 122°24'7 6.9
2017-Jan-14 20:33N 38°03' W 122°16'0 0.0
2017-Jan-14 19:23N 38°03' W 122°16'0 0.0
2017-Jan-14 18:34N 38°03' W 122°16'0 0.1
2017-Jan-14 17:33N 38°03' W 122°16'1 1.2
2017-Jan-14 16:33N 38°03' W 122°17'10 7.6
2017-Jan-14 15:16N 37°56' W 122°26'6 8.0
2017-Jan-14 14:33N 37°51' W 122°23'4 4.0
2017-Jan-14 13:33N 37°49' W 122°19'0 0.0
2017-Jan-14 12:33N 37°49' W 122°19'0 0.0
2017-Jan-14 11:33N 37°49' W 122°19'0 0.0
2017-Jan-14 10:33N 37°49' W 122°19'0 0.0
2017-Jan-14 09:33N 37°49' W 122°19'1 0.8
2017-Jan-14 08:34N 37°49' W 122°20'1 0.7
2017-Jan-14 07:34N 37°49' W 122°20'2 1.5
2017-Jan-14 06:33N 37°49' W 122°19'0 0.0
2017-Jan-14 05:33N 37°49' W 122°19'0 0.0
2017-Jan-14 04:33N 37°49' W 122°19'0 0.0
2017-Jan-14 03:33N 37°49' W 122°19'0 0.0
2017-Jan-13 23:33N 37°49' W 122°19'0 0.0
2017-Jan-13 22:33N 37°49' W 122°19'0 0.0
2017-Jan-13 21:33N 37°49' W 122°19'0 0.0
2017-Jan-13 20:33N 37°49' W 122°19'0 0.0
2017-Jan-13 19:33N 37°49' W 122°19'1 1.1
2017-Jan-13 18:33N 37°49' W 122°20'1 1.1
2017-Jan-13 17:33N 37°48' W 122°19'1 1.0
2017-Jan-13 16:33N 37°48' W 122°18'  

Dump ship's entire track history